createdAt,value
2018-05-17T00:02:22.240Z,8.60
2018-05-17T00:04:51.306Z,8.60
2018-05-17T00:07:19.608Z,8.60
2018-05-17T00:09:48.703Z,8.40
2018-05-17T00:12:17.016Z,8.40
2018-05-17T00:14:46.121Z,8.40
2018-05-17T00:17:14.492Z,8.40
2018-05-17T00:19:42.884Z,8.40
2018-05-17T00:22:11.244Z,8.30
2018-05-17T00:24:40.401Z,8.30
2018-05-17T00:27:08.732Z,8.20
2018-05-17T00:29:37.036Z,8.20
2018-05-17T00:32:05.501Z,8.20
2018-05-17T00:34:33.813Z,8.20
2018-05-17T00:39:37.506Z,8.10
2018-05-17T00:42:05.936Z,8.10
2018-05-17T00:44:35.061Z,8.00
2018-05-17T00:47:04.206Z,8.10
2018-05-17T00:49:32.601Z,8.00
2018-05-17T00:52:00.967Z,8.00
2018-05-17T00:54:29.288Z,7.90
2018-05-17T00:56:57.614Z,7.90
2018-05-17T00:59:25.948Z,7.90
2018-05-17T01:01:55.043Z,7.90
2018-05-17T01:04:24.116Z,7.80
2018-05-17T01:06:53.311Z,7.80
2018-05-17T01:09:22.373Z,7.70
2018-05-17T01:11:51.513Z,7.70
2018-05-17T01:14:20.611Z,7.80
2018-05-17T01:16:49.688Z,7.70
2018-05-17T01:19:18.020Z,7.70
2018-05-17T01:21:46.340Z,7.70
2018-05-17T01:24:14.825Z,7.50
2018-05-17T01:26:43.218Z,7.50
2018-05-17T01:29:12.319Z,7.50
2018-05-17T01:31:41.392Z,7.50
2018-05-17T01:34:09.693Z,7.50
2018-05-17T01:36:50.563Z,7.40
2018-05-17T01:39:19.699Z,7.40
2018-05-17T01:41:48.960Z,7.40
2018-05-17T01:44:17.280Z,7.30
2018-05-17T01:46:46.482Z,7.30
2018-05-17T01:49:14.777Z,7.20
2018-05-17T01:51:43.183Z,7.30
2018-05-17T01:54:11.587Z,7.20
2018-05-17T01:56:39.884Z,7.20
2018-05-17T01:59:09.121Z,7.20
2018-05-17T02:01:37.432Z,7.20
2018-05-17T02:04:06.511Z,7.10
2018-05-17T02:06:34.833Z,7.10
2018-05-17T02:09:03.170Z,7.10
2018-05-17T02:11:31.541Z,7.00
2018-05-17T02:13:59.889Z,6.90
2018-05-17T02:16:28.264Z,6.90
2018-05-17T02:18:56.569Z,6.80
2018-05-17T02:21:25.649Z,6.80
2018-05-17T02:23:53.964Z,6.80
2018-05-17T02:26:23.034Z,6.60
2018-05-17T02:28:51.368Z,6.60
2018-05-17T02:31:19.822Z,6.60
2018-05-17T02:33:48.925Z,6.50
2018-05-17T02:36:17.993Z,6.40
2018-05-17T02:38:46.376Z,6.40
2018-05-17T02:41:15.506Z,6.30
2018-05-17T02:43:43.804Z,6.30
2018-05-17T02:46:12.109Z,6.30
2018-05-17T02:48:40.425Z,6.30
2018-05-17T02:51:09.517Z,6.20
2018-05-17T02:53:38.574Z,6.10
2018-05-17T02:56:06.875Z,6.10
2018-05-17T02:58:35.946Z,6.10
2018-05-17T03:01:04.271Z,6.10
2018-05-17T03:03:33.354Z,6.10
2018-05-17T03:06:01.657Z,6.10
2018-05-17T03:08:29.950Z,6.00
2018-05-17T03:10:58.292Z,6.00
2018-05-17T03:13:26.593Z,6.10
2018-05-17T03:15:54.924Z,6.00
2018-05-17T03:18:24.007Z,5.90
2018-05-17T03:20:53.129Z,5.80
2018-05-17T03:23:22.193Z,5.80
2018-05-17T03:25:50.595Z,5.80
2018-05-17T03:28:18.891Z,5.80
2018-05-17T03:30:47.206Z,5.80
2018-05-17T03:33:16.305Z,5.70
2018-05-17T03:35:44.622Z,5.70
2018-05-17T03:38:12.998Z,5.70
2018-05-17T03:40:41.304Z,5.60
2018-05-17T03:43:09.607Z,5.60
2018-05-17T03:45:37.950Z,5.50
2018-05-17T03:48:06.322Z,5.50
2018-05-17T03:50:34.705Z,5.50
2018-05-17T03:53:03.017Z,5.50
2018-05-17T03:55:32.077Z,5.50
2018-05-17T03:58:00.458Z,5.40
2018-05-17T04:00:41.388Z,5.40
2018-05-17T04:03:21.475Z,5.40
2018-05-17T04:06:01.506Z,5.40
2018-05-17T04:08:29.890Z,5.50
2018-05-17T04:10:58.134Z,5.50
2018-05-17T04:13:26.446Z,5.50
2018-05-17T04:15:54.768Z,5.50
2018-05-17T04:18:23.106Z,5.50
2018-05-17T04:20:51.413Z,5.50
2018-05-17T04:23:19.696Z,5.50
2018-05-17T04:25:48.006Z,5.40
2018-05-17T04:28:16.373Z,5.40
2018-05-17T04:30:45.470Z,5.40
2018-05-17T04:33:14.551Z,5.30
2018-05-17T04:35:43.684Z,5.30
2018-05-17T04:38:11.994Z,5.30
2018-05-17T04:40:40.296Z,5.40
2018-05-17T04:43:09.403Z,5.40
2018-05-17T04:45:39.384Z,5.40
2018-05-17T04:48:07.681Z,5.40
2018-05-17T04:50:35.972Z,5.50
2018-05-17T04:53:04.309Z,5.50
2018-05-17T04:55:32.612Z,5.50
2018-05-17T04:58:01.019Z,5.40
2018-05-17T05:00:30.077Z,5.50
2018-05-17T05:02:58.395Z,5.50
2018-05-17T05:05:27.509Z,5.50
2018-05-17T05:07:55.828Z,5.50
2018-05-17T05:10:24.209Z,5.50
2018-05-17T05:12:52.512Z,5.60
2018-05-17T05:15:20.916Z,5.70
2018-05-17T05:17:49.973Z,6.00
2018-05-17T05:20:18.262Z,6.00
2018-05-17T05:22:46.544Z,6.00
2018-05-17T05:25:15.718Z,6.00
2018-05-17T05:27:44.753Z,6.00
2018-05-17T05:30:13.855Z,6.00
2018-05-17T05:32:42.165Z,6.00
2018-05-17T05:35:10.465Z,6.10
2018-05-17T05:37:38.851Z,6.10
2018-05-17T05:40:07.164Z,6.20
2018-05-17T05:42:36.302Z,6.20
2018-05-17T05:45:04.608Z,6.20
2018-05-17T05:47:32.962Z,6.10
2018-05-17T05:50:01.245Z,6.10
2018-05-17T05:52:30.348Z,6.10
2018-05-17T05:54:58.709Z,6.10
2018-05-17T05:57:27.053Z,6.20
2018-05-17T05:59:56.184Z,6.10
2018-05-17T06:02:24.523Z,6.10
2018-05-17T06:04:53.651Z,6.00
2018-05-17T06:07:22.013Z,6.00
2018-05-17T06:09:50.303Z,5.90
2018-05-17T06:12:19.431Z,6.00
2018-05-17T06:14:48.572Z,6.10
2018-05-17T06:17:17.719Z,6.10
2018-05-17T06:19:46.078Z,6.10
2018-05-17T06:22:14.416Z,6.10
2018-05-17T06:24:42.738Z,6.10
2018-05-17T06:27:11.080Z,6.20
2018-05-17T06:29:40.186Z,6.40
2018-05-17T06:32:09.264Z,6.40
2018-05-17T06:34:37.601Z,6.40
2018-05-17T06:37:05.966Z,6.50
2018-05-17T06:39:34.293Z,6.50
2018-05-17T06:42:02.666Z,6.70
2018-05-17T06:44:30.969Z,6.80
2018-05-17T06:47:00.041Z,6.80
2018-05-17T06:49:28.357Z,6.80
2018-05-17T06:51:56.960Z,6.90
2018-05-17T06:54:25.625Z,6.90
2018-05-17T06:56:53.949Z,6.90
2018-05-17T06:59:22.411Z,6.80
2018-05-17T07:01:50.783Z,6.70
2018-05-17T07:04:19.142Z,6.80
2018-05-17T07:06:47.583Z,6.90
2018-05-17T07:09:15.908Z,6.90
2018-05-17T07:11:44.286Z,6.90
2018-05-17T07:14:13.705Z,6.90
2018-05-17T07:16:42.104Z,6.90
2018-05-17T07:19:10.426Z,7.00
2018-05-17T07:21:39.476Z,7.00
2018-05-17T07:24:07.888Z,7.00
2018-05-17T07:26:36.145Z,7.00
2018-05-17T07:29:04.590Z,7.00
2018-05-17T07:31:33.052Z,7.10
2018-05-17T07:34:02.212Z,7.20
2018-05-17T07:36:30.665Z,7.10
2018-05-17T07:38:59.259Z,7.30
2018-05-17T07:41:28.433Z,7.30
2018-05-17T07:43:56.746Z,7.30
2018-05-17T07:46:25.099Z,7.40
2018-05-17T07:48:53.485Z,7.30
2018-05-17T07:51:21.803Z,7.30
2018-05-17T07:53:50.170Z,7.40
2018-05-17T07:56:19.351Z,7.30
2018-05-17T07:58:47.677Z,7.30
2018-05-17T08:01:16.808Z,7.30
2018-05-17T08:03:45.350Z,7.30
2018-05-17T08:06:14.167Z,7.30
2018-05-17T08:08:42.588Z,7.50
2018-05-17T08:11:11.048Z,7.60
2018-05-17T08:13:40.274Z,8.20
2018-05-17T08:16:08.646Z,8.20
2018-05-17T08:18:37.246Z,8.30
2018-05-17T08:21:05.585Z,8.30
2018-05-17T08:23:33.876Z,8.40
2018-05-17T08:26:02.176Z,8.70
2018-05-17T08:28:30.490Z,8.80
2018-05-17T08:30:59.696Z,8.90
2018-05-17T08:33:28.001Z,8.90
2018-05-17T08:35:56.360Z,9.00
2018-05-17T08:38:24.688Z,9.00
2018-05-17T08:40:52.997Z,8.90
2018-05-17T08:43:22.116Z,8.90
2018-05-17T08:45:50.440Z,8.90
2018-05-17T08:48:18.895Z,8.90
2018-05-17T08:50:47.228Z,9.00
2018-05-17T08:53:16.327Z,8.80
2018-05-17T08:55:45.472Z,8.70
2018-05-17T08:58:13.787Z,8.70
2018-05-17T09:00:42.073Z,8.80
2018-05-17T09:03:11.162Z,8.70
2018-05-17T09:05:39.575Z,8.70
2018-05-17T09:08:08.020Z,8.90
2018-05-17T09:10:36.425Z,9.00
2018-05-17T09:13:05.521Z,9.00
2018-05-17T09:15:34.697Z,9.10
2018-05-17T09:18:03.296Z,9.10
2018-05-17T09:20:31.696Z,9.40
2018-05-17T09:23:00.077Z,9.50
2018-05-17T09:25:28.525Z,9.60
2018-05-17T09:27:57.020Z,9.50
2018-05-17T09:30:26.136Z,9.90
2018-05-17T09:32:55.331Z,10.20
2018-05-17T09:35:23.701Z,10.10
2018-05-17T09:37:52.955Z,10.40
2018-05-17T09:40:21.321Z,10.40
2018-05-17T09:42:49.677Z,10.50
2018-05-17T09:45:18.289Z,10.30
2018-05-17T09:47:46.659Z,10.10
2018-05-17T09:50:15.182Z,10.00
2018-05-17T09:52:43.520Z,9.80
2018-05-17T09:55:11.879Z,10.10
2018-05-17T09:57:40.236Z,10.20
2018-05-17T10:00:16.317Z,11.00
2018-05-17T10:02:44.786Z,11.00
2018-05-17T10:05:13.852Z,11.60
2018-05-17T10:07:42.186Z,11.60
2018-05-17T10:10:10.640Z,11.10
2018-05-17T10:12:39.733Z,10.60
2018-05-17T10:15:08.976Z,10.70
2018-05-17T10:17:37.345Z,10.70
2018-05-17T10:20:06.096Z,10.80
2018-05-17T10:22:35.444Z,10.40
2018-05-17T10:25:03.940Z,10.30
2018-05-17T10:27:32.270Z,10.40
2018-05-17T10:30:00.683Z,10.00
2018-05-17T10:32:29.136Z,9.90
2018-05-17T10:34:58.352Z,9.80
2018-05-17T10:37:26.847Z,9.70
2018-05-17T10:39:55.260Z,10.10
2018-05-17T10:42:23.727Z,10.30
2018-05-17T10:44:52.069Z,10.10
2018-05-17T10:47:20.539Z,10.10
2018-05-17T10:49:48.990Z,10.20
2018-05-17T10:52:17.321Z,10.30
2018-05-17T10:54:45.640Z,10.20
2018-05-17T10:57:13.974Z,10.40
2018-05-17T10:59:42.316Z,10.40
2018-05-17T11:02:11.525Z,10.30
2018-05-17T11:04:40.626Z,10.40
2018-05-17T11:07:09.740Z,10.80
2018-05-17T11:09:38.177Z,10.80
2018-05-17T11:12:06.585Z,11.00
2018-05-17T11:14:34.964Z,11.00
2018-05-17T11:17:03.337Z,11.30
2018-05-17T11:19:32.529Z,11.70
2018-05-17T11:22:01.638Z,11.70
2018-05-17T11:24:30.028Z,11.70
2018-05-17T11:26:58.437Z,12.00
2018-05-17T11:29:26.787Z,12.00
2018-05-17T11:31:55.122Z,12.00
2018-05-17T11:34:23.505Z,11.80
2018-05-17T11:36:51.853Z,11.70
2018-05-17T11:39:20.370Z,11.80
2018-05-17T11:41:48.693Z,11.80
2018-05-17T11:44:17.129Z,11.80
2018-05-17T11:46:45.589Z,11.60
2018-05-17T11:49:14.018Z,11.60
2018-05-17T11:51:42.384Z,11.80
2018-05-17T11:54:11.616Z,12.40
2018-05-17T11:56:39.966Z,12.40
2018-05-17T11:59:09.074Z,12.30
2018-05-17T12:01:38.308Z,12.30
2018-05-17T12:04:06.657Z,12.30
2018-05-17T12:06:35.037Z,12.40
2018-05-17T12:09:03.413Z,12.20
2018-05-17T12:11:31.728Z,12.10
2018-05-17T12:14:00.146Z,12.10
2018-05-17T12:16:28.542Z,11.90
2018-05-17T12:18:57.930Z,12.50
2018-05-17T12:21:26.338Z,12.50
2018-05-17T12:23:54.671Z,12.90
2018-05-17T12:26:23.474Z,13.20
2018-05-17T12:28:52.389Z,13.20
2018-05-17T12:31:21.103Z,13.30
2018-05-17T12:33:49.562Z,13.60
2018-05-17T12:36:18.227Z,13.40
2018-05-17T12:38:47.133Z,13.50
2018-05-17T12:41:15.968Z,13.30
2018-05-17T12:43:44.848Z,13.50
2018-05-17T12:46:13.632Z,13.70
2018-05-17T12:48:42.454Z,13.90
2018-05-17T12:51:11.299Z,13.80
2018-05-17T12:53:40.264Z,14.10
2018-05-17T12:56:09.042Z,14.00
2018-05-17T12:58:39.087Z,13.80
2018-05-17T13:01:08.094Z,13.40
2018-05-17T13:03:36.881Z,13.30
2018-05-17T13:06:05.809Z,13.50
2018-05-17T13:08:35.411Z,14.40
2018-05-17T13:11:04.076Z,14.40
2018-05-17T13:13:32.696Z,14.30
2018-05-17T13:16:01.384Z,14.10
2018-05-17T13:18:30.110Z,14.00
2018-05-17T13:20:59.476Z,14.60
2018-05-17T13:23:28.362Z,14.50
2018-05-17T13:25:57.029Z,14.50
2018-05-17T13:28:26.549Z,14.30
2018-05-17T13:30:55.445Z,14.20
2018-05-17T13:33:25.054Z,14.50
2018-05-17T13:38:29.664Z,14.80
2018-05-17T13:40:58.347Z,14.90
2018-05-17T13:43:27.067Z,15.20
2018-05-17T13:45:55.774Z,15.20
2018-05-17T13:48:24.640Z,15.60
2018-05-17T13:50:54.061Z,15.30
2018-05-17T13:53:24.180Z,15.20
2018-05-17T13:55:53.319Z,15.20
2018-05-17T13:58:21.955Z,15.20
2018-05-17T14:00:50.606Z,15.30
2018-05-17T14:03:19.702Z,15.10
2018-05-17T14:05:48.385Z,15.00
2018-05-17T14:08:18.105Z,16.00
2018-05-17T14:10:46.992Z,15.90
2018-05-17T14:13:15.879Z,16.00
2018-05-17T14:15:44.818Z,16.60
2018-05-17T14:18:14.555Z,16.20
2018-05-17T14:20:43.197Z,16.20
2018-05-17T14:23:12.136Z,16.40
2018-05-17T14:25:40.829Z,16.20
2018-05-17T14:28:09.718Z,16.00
2018-05-17T14:30:39.406Z,15.70
2018-05-17T14:33:08.061Z,15.70
2018-05-17T14:35:37.490Z,15.70
2018-05-17T14:38:06.182Z,15.70
2018-05-17T14:40:35.076Z,15.70
2018-05-17T14:43:03.840Z,15.80
2018-05-17T14:45:33.319Z,17.10
2018-05-17T14:48:02.150Z,17.10
2018-05-17T14:50:30.953Z,17.80
2018-05-17T14:52:59.730Z,17.80
2018-05-17T14:55:28.577Z,16.80
2018-05-17T14:57:57.240Z,16.90
2018-05-17T15:00:25.864Z,17.10
2018-05-17T15:02:54.827Z,16.80
2018-05-17T15:05:23.769Z,16.60
2018-05-17T15:07:53.264Z,16.80
2018-05-17T15:10:22.867Z,16.80
2018-05-17T15:12:52.490Z,16.60
2018-05-17T15:15:21.473Z,16.50
2018-05-17T15:17:51.125Z,16.70
2018-05-17T15:20:20.294Z,17.20
2018-05-17T15:22:48.594Z,17.20
2018-05-17T15:25:16.939Z,17.00
2018-05-17T15:27:46.055Z,15.80
2018-05-17T15:30:14.413Z,15.80
2018-05-17T15:32:42.716Z,15.90
2018-05-17T15:35:11.080Z,16.00
2018-05-17T15:37:39.494Z,15.60
2018-05-17T15:40:07.849Z,15.60
2018-05-17T15:42:36.308Z,16.20
2018-05-17T15:45:04.666Z,16.00
2018-05-17T15:47:33.014Z,15.80
2018-05-17T15:50:01.422Z,16.10
2018-05-17T15:52:29.786Z,15.80
2018-05-17T15:54:58.098Z,15.10
2018-05-17T15:57:26.415Z,15.30
2018-05-17T15:59:54.822Z,15.40
2018-05-17T16:02:23.942Z,16.00
2018-05-17T16:04:52.285Z,15.90
2018-05-17T16:07:21.422Z,16.10
2018-05-17T16:09:49.798Z,16.10
2018-05-17T16:12:18.218Z,16.10
2018-05-17T16:14:47.581Z,15.90
2018-05-17T16:17:16.615Z,15.50
2018-05-17T16:19:45.022Z,15.50
2018-05-17T16:22:14.130Z,15.60
2018-05-17T16:24:43.212Z,16.20
2018-05-17T16:27:12.356Z,16.60
2018-05-17T16:29:40.844Z,16.60
2018-05-17T16:32:09.241Z,16.70
2018-05-17T16:34:37.577Z,17.10
2018-05-17T16:37:05.946Z,16.90
2018-05-17T16:39:34.241Z,16.10
2018-05-17T16:42:02.636Z,16.20
2018-05-17T16:44:30.982Z,15.90
2018-05-17T16:46:59.318Z,16.20
2018-05-17T16:49:27.664Z,16.00
2018-05-17T16:51:56.106Z,16.10
2018-05-17T16:54:25.336Z,16.00
2018-05-17T16:56:53.677Z,16.00
2018-05-17T16:59:22.088Z,15.90
2018-05-17T17:01:51.409Z,15.90
2018-05-17T17:04:19.804Z,15.90
2018-05-17T17:06:48.197Z,15.60
2018-05-17T17:09:16.653Z,15.70
2018-05-17T17:11:45.006Z,16.20
2018-05-17T17:14:13.460Z,15.90
2018-05-17T17:16:41.848Z,15.40
2018-05-17T17:19:10.994Z,15.20
2018-05-17T17:21:39.368Z,15.10
2018-05-17T17:24:07.827Z,15.10
2018-05-17T17:26:36.228Z,15.30
2018-05-17T17:29:04.557Z,15.40
2018-05-17T17:31:32.858Z,15.00
2018-05-17T17:34:01.192Z,14.70
2018-05-17T17:36:29.596Z,14.70
2018-05-17T17:38:57.942Z,14.40
2018-05-17T17:41:26.320Z,14.30
2018-05-17T17:43:54.685Z,14.70
2018-05-17T17:46:23.780Z,14.30
2018-05-17T17:48:52.104Z,14.30
2018-05-17T17:51:21.203Z,13.80
2018-05-17T17:53:50.334Z,13.30
2018-05-17T17:56:19.527Z,13.00
2018-05-17T17:58:48.801Z,13.00
2018-05-17T18:01:17.132Z,12.90
2018-05-17T18:03:45.436Z,12.80
2018-05-17T18:06:13.730Z,12.90
2018-05-17T18:08:42.141Z,13.20
2018-05-17T18:11:10.472Z,13.30
2018-05-17T18:13:38.800Z,13.40
2018-05-17T18:16:07.201Z,13.20
2018-05-17T18:18:35.610Z,13.00
2018-05-17T18:21:03.952Z,12.80
2018-05-17T18:23:32.331Z,12.80
2018-05-17T18:26:00.698Z,12.50
2018-05-17T18:28:29.013Z,12.40
2018-05-17T18:30:57.362Z,12.20
2018-05-17T18:33:25.689Z,11.70
2018-05-17T18:35:54.044Z,11.30
2018-05-17T18:38:22.465Z,11.10
2018-05-17T18:40:51.535Z,10.80
2018-05-17T18:43:19.867Z,10.70
2018-05-17T18:45:48.170Z,10.60
2018-05-17T18:48:16.522Z,10.50
2018-05-17T18:50:44.901Z,10.40
2018-05-17T18:53:13.241Z,10.30
2018-05-17T18:55:42.330Z,9.90
2018-05-17T18:58:10.636Z,9.90
2018-05-17T19:00:39.790Z,9.80
2018-05-17T19:03:08.140Z,9.70
2018-05-17T19:05:36.447Z,9.60
2018-05-17T19:08:04.769Z,9.60
2018-05-17T19:10:33.935Z,9.40
2018-05-17T19:13:02.248Z,9.40
2018-05-17T19:15:31.315Z,9.40
2018-05-17T19:17:59.728Z,9.40
2018-05-17T19:20:29.823Z,9.30
2018-05-17T19:22:58.137Z,9.30
2018-05-17T19:25:26.446Z,9.20
2018-05-17T19:27:54.759Z,9.20
2018-05-17T19:30:23.059Z,9.00
2018-05-17T19:32:52.172Z,8.90
2018-05-17T19:35:20.593Z,8.90
2018-05-17T19:37:49.831Z,9.00
2018-05-17T19:40:18.895Z,9.00
2018-05-17T19:42:47.241Z,9.00
2018-05-17T19:45:15.596Z,9.00
2018-05-17T19:47:43.865Z,9.00
2018-05-17T19:50:12.168Z,9.00
2018-05-17T19:52:40.484Z,9.00
2018-05-17T19:55:08.839Z,9.00
2018-05-17T19:57:38.129Z,9.00
2018-05-17T20:00:06.501Z,9.00
2018-05-17T20:02:34.788Z,8.90
2018-05-17T20:05:03.193Z,8.90
2018-05-17T20:07:31.576Z,8.80
2018-05-17T20:09:59.967Z,8.80
2018-05-17T20:12:28.369Z,8.80
2018-05-17T20:14:57.450Z,8.70
2018-05-17T20:17:25.788Z,8.70
2018-05-17T20:19:54.090Z,8.70
2018-05-17T20:22:22.411Z,8.70
2018-05-17T20:24:50.708Z,8.60
2018-05-17T20:27:19.014Z,8.60
2018-05-17T20:29:47.352Z,8.60
2018-05-17T20:32:15.738Z,8.50
2018-05-17T20:34:44.034Z,8.60
2018-05-17T20:37:12.342Z,8.50
2018-05-17T20:39:40.710Z,8.40
2018-05-17T20:42:09.016Z,8.30
2018-05-17T20:44:38.080Z,8.20
2018-05-17T20:47:07.287Z,8.10
2018-05-17T20:49:35.628Z,8.10
2018-05-17T20:52:05.101Z,8.10
2018-05-17T20:54:34.184Z,8.10
2018-05-17T20:57:03.253Z,8.10
2018-05-17T20:59:31.625Z,8.10
2018-05-17T21:02:00.173Z,8.10
2018-05-17T21:04:28.484Z,8.00
2018-05-17T21:06:56.820Z,8.00
2018-05-17T21:09:25.934Z,8.00
2018-05-17T21:11:54.272Z,8.00
2018-05-17T21:14:22.631Z,8.00
2018-05-17T21:16:51.304Z,8.00
2018-05-17T21:19:19.630Z,8.00
2018-05-17T21:21:48.768Z,8.00
2018-05-17T21:24:17.106Z,7.90
2018-05-17T21:26:46.174Z,7.90
2018-05-17T21:29:14.460Z,7.90
2018-05-17T21:31:43.531Z,8.00
2018-05-17T21:34:11.828Z,7.90
2018-05-17T21:36:40.185Z,7.90
2018-05-17T21:39:08.524Z,7.90
2018-05-17T21:41:37.595Z,7.90
2018-05-17T21:44:05.888Z,7.80
2018-05-17T21:46:34.978Z,7.80
2018-05-17T21:49:04.079Z,7.80
2018-05-17T21:51:33.418Z,7.70
2018-05-17T21:54:01.710Z,7.70
2018-05-17T21:56:30.004Z,7.70
2018-05-17T21:58:58.330Z,7.70
2018-05-17T22:01:26.617Z,7.70
2018-05-17T22:03:54.968Z,7.70
2018-05-17T22:06:24.036Z,7.70
2018-05-17T22:08:52.338Z,7.70
2018-05-17T22:11:21.410Z,7.70
2018-05-17T22:13:49.727Z,7.70
2018-05-17T22:16:18.825Z,7.60
2018-05-17T22:18:47.889Z,7.60
2018-05-17T22:21:16.249Z,7.60
2018-05-17T22:23:44.552Z,7.50
2018-05-17T22:26:12.850Z,7.50
2018-05-17T22:28:41.988Z,7.40
2018-05-17T22:31:10.283Z,7.40
2018-05-17T22:33:38.600Z,7.40
2018-05-17T22:36:07.670Z,7.30
2018-05-17T22:38:35.978Z,7.30
2018-05-17T22:41:05.100Z,7.30
2018-05-17T22:43:34.155Z,7.30
2018-05-17T22:46:03.219Z,7.30
2018-05-17T22:48:32.479Z,7.30
2018-05-17T22:51:00.803Z,7.30
2018-05-17T22:53:29.140Z,7.30
2018-05-17T22:55:57.469Z,7.30
2018-05-17T22:58:31.636Z,7.30
2018-05-17T23:00:59.943Z,7.20
2018-05-17T23:03:28.273Z,7.20
2018-05-17T23:05:57.341Z,7.10
2018-05-17T23:08:26.460Z,7.10
2018-05-17T23:10:55.532Z,7.10
2018-05-17T23:13:23.829Z,7.10
2018-05-17T23:15:52.888Z,7.10
2018-05-17T23:18:21.265Z,7.10
2018-05-17T23:20:49.568Z,7.10
2018-05-17T23:23:17.938Z,7.00
2018-05-17T23:25:46.241Z,7.00
2018-05-17T23:28:15.312Z,6.80
2018-05-17T23:30:43.673Z,6.80
2018-05-17T23:33:11.962Z,6.80
2018-05-17T23:35:40.254Z,6.80
2018-05-17T23:38:08.561Z,6.90
2018-05-17T23:43:51.233Z,6.80
2018-05-17T23:46:19.570Z,6.80
2018-05-17T23:48:48.703Z,6.80
2018-05-17T23:51:17.010Z,6.70
2018-05-17T23:53:46.250Z,6.70
2018-05-17T23:56:14.551Z,6.60
2018-05-17T23:58:42.853Z,6.60
